Browns Valley, California
Current Conditions -  °F | °C
As of 1:58 AM on Wednesday 26 Nov 2014 (Local Time) from KBAB Reporting Station
Clear Clear  
Wind Chill: 43°   Ceiling: Unl
Heat Index: 43°   Visibility: 10mi
Dew Point: 42°   Wind: 0mph
Humidity: 99%   Direction: NA
Pressure: 30.34"   Gusts: NA
Location:  39.24°N, 121.41°W
Report Text: KBAB 260958Z AUTO 00000KT 10SM CLR 06/06 A3034 RMK AO2 SLP352 T00590058 $
Loading
Personal Weather Stations






























Interactive Weather Map New forecast layout! Learn more

10-Day Weather Forecast

Advertisements
Track Severe Weather on mobile